Time;durP1;ratioP1;P1;durP2;ratioP2;P2;SDS_P1;SDS_P2;PMS_P1;PMS_P2;Temp;Humidity;BMP_temperature;BMP_pressure;BME280_temperature;BME280_humidity;BME280_pressure;Samples;Min_cycle;Max_cycle;Signal;HPM_P1;HPM_P2
2022/06/26 00:00:20;;;;;;;;;;;27.80;44.90;;;32.02;28.60;100956.03;5097832;28;20011;-12
2022/06/26 00:02:46;;;;;;;;;;;27.80;45.50;;;32.02;28.46;100958.75;5117368;28;19920;-12
2022/06/26 00:05:13;;;;;;;;;;;27.80;45.00;;;31.98;28.56;100956.53;5117079;28;20345;-12
2022/06/26 00:07:39;;;;;;;;;;;27.80;45.00;;;31.95;28.56;100946.91;5116857;28;19915;-12
2022/06/26 00:10:05;;;;;;;;;;;27.80;44.90;;;31.98;28.33;100956.53;5097730;28;19965;-12
2022/06/26 00:12:32;;;;;;;;;;;27.80;44.90;;;31.98;28.36;100957.41;5116968;28;19916;-12
2022/06/26 00:14:58;;;;;;;;;;;27.80;44.90;;;32.03;28.36;100968.56;5117503;28;20282;-12
2022/06/26 00:17:23;;;;;;;;;;;27.80;44.90;;;32.02;28.76;100969.56;5117309;28;20010;-12
2022/06/26 00:19:49;;;;;;;;;;;27.80;45.00;;;31.95;28.53;100955.84;5116717;28;20015;-12
2022/06/26 00:22:16;;;;;;;;;;;27.80;44.90;;;32.03;28.19;100962.31;5116841;28;19959;-12
2022/06/26 00:24:42;;;;;;;;;;;27.80;44.90;;;32.03;28.61;100965.84;5117215;28;19915;-12
2022/06/26 00:27:08;;;;;;;;;;;27.80;44.90;;;32.03;28.52;100968.56;5116659;28;19923;-12
2022/06/26 00:29:34;;;;;;;;;;;27.80;45.00;;;32.03;28.48;100963.16;5116646;28;19959;-12
2022/06/26 00:32:01;;;;;;;;;;;27.80;44.90;;;31.97;28.22;100949.44;5116689;28;20301;-12
2022/06/26 00:34:27;;;;;;;;;;;27.80;44.90;;;31.99;28.63;100953.66;5116464;28;19963;-12
2022/06/26 00:36:53;;;;;;;;;;;27.80;45.00;;;31.98;28.29;100954.69;5116681;28;19916;-12
2022/06/26 00:39:18;;;;;;;;;;;27.80;45.00;;;32.01;28.27;100948.94;5096738;28;19916;-12
2022/06/26 00:41:45;;;;;;;;;;;27.80;45.00;;;32.00;28.61;100955.38;5115195;28;19916;-12
2022/06/26 00:44:19;;;;;;;;;;;27.80;45.00;;;32.01;28.54;100946.25;5116435;28;20055;-12
2022/06/26 00:46:45;;;;;;;;;;;27.80;45.00;;;31.95;28.57;100936.94;5116719;28;19954;-12
2022/06/26 00:49:12;;;;;;;;;;;27.80;45.00;;;32.03;28.75;100948.78;5116276;28;20006;-12
2022/06/26 00:51:41;;;;;;;;;;;27.80;45.00;;;32.02;28.28;100947.09;5116346;28;19916;-12
2022/06/26 00:54:08;;;;;;;;;;;27.80;45.00;;;32.01;28.15;100943.53;5098031;28;19951;-12
2022/06/26 00:56:35;;;;;;;;;;;27.80;45.00;;;32.01;28.51;100940.84;5115500;28;19969;-12
2022/06/26 00:59:01;;;;;;;;;;;27.80;45.00;;;31.96;28.54;100932.38;5097735;28;20014;-12
2022/06/26 01:01:27;;;;;;;;;;;27.80;45.00;;;31.95;28.32;100936.09;5116065;28;19930;-12
2022/06/26 01:03:53;;;;;;;;;;;27.80;45.00;;;31.97;28.78;100935.94;5116107;28;19919;-12
2022/06/26 01:06:19;;;;;;;;;;;27.80;45.00;;;31.97;28.58;100930.50;5113511;28;20018;-12
2022/06/26 01:08:46;;;;;;;;;;;27.80;45.00;;;31.97;28.36;100939.47;5115975;28;20015;-12
2022/06/26 01:11:18;;;;;;;;;;;27.80;45.10;;;32.01;28.51;100939.97;5114532;28;20347;-12
2022/06/26 01:13:54;;;;;;;;;;;27.80;45.00;;;31.99;28.53;100933.91;5115215;28;19930;-12
2022/06/26 01:16:22;;;;;;;;;;;27.80;45.00;;;32.00;28.29;100941.00;5114393;28;19937;-12
2022/06/26 01:18:52;;;;;;;;;;;27.80;45.10;;;31.98;28.60;100943.00;5097501;28;19984;-12
2022/06/26 01:21:20;;;;;;;;;;;27.80;45.70;;;31.97;28.25;100950.28;5095825;28;19916;-12
2022/06/26 01:23:47;;;;;;;;;;;27.80;45.20;;;31.93;28.53;100943.53;5097387;28;19919;-12
2022/06/26 01:26:18;;;;;;;;;;;27.80;45.20;;;31.93;28.58;100947.06;5098020;28;19916;-12
2022/06/26 01:28:44;;;;;;;;;;;27.80;45.20;;;31.92;28.76;100945.38;5113626;28;19916;-12
2022/06/26 01:31:10;;;;;;;;;;;27.80;45.20;;;31.93;28.55;100947.06;5115432;28;19915;-12
2022/06/26 01:33:37;;;;;;;;;;;27.80;45.20;;;31.93;28.44;100952.47;5096070;28;19941;-12
2022/06/26 01:36:04;;;;;;;;;;;27.70;45.10;;;31.92;28.82;100955.34;5097105;28;19968;-12
2022/06/26 01:38:30;;;;;;;;;;;27.70;45.20;;;31.95;28.48;100957.72;5113103;28;19920;-12
2022/06/26 01:40:56;;;;;;;;;;;27.70;45.20;;;31.93;28.48;100959.75;5115312;28;19922;-13
2022/06/26 01:43:30;;;;;;;;;;;27.70;45.20;;;31.93;28.56;100966.00;5097078;28;19916;-12
2022/06/26 01:45:56;;;;;;;;;;;27.70;45.30;;;31.88;28.76;100956.69;5080904;28;19970;-12
2022/06/26 01:48:29;;;;;;;;;;;27.70;45.30;;;31.85;28.89;100952.44;5113995;28;19981;-12
2022/06/26 01:50:56;;;;;;;;;;;27.70;45.30;;;31.90;28.58;100960.91;5096944;28;20368;-12
2022/06/26 01:53:23;;;;;;;;;;;27.70;45.30;;;31.86;28.89;100956.00;5113246;28;19963;-13
2022/06/26 01:55:48;;;;;;;;;;;27.70;45.30;;;31.85;28.69;100952.44;5112909;28;19916;-12
2022/06/26 01:58:20;;;;;;;;;;;27.70;45.30;;;31.89;28.93;100959.25;5095387;28;20421;-12
2022/06/26 02:00:46;;;;;;;;;;;27.70;45.30;;;31.88;28.84;100960.25;5094921;28;19916;-12
2022/06/26 02:03:13;;;;;;;;;;;27.70;45.30;;;31.86;28.69;100956.88;5113781;28;20363;-12
2022/06/26 02:05:39;;;;;;;;;;;27.60;45.30;;;31.89;28.78;100958.38;5096766;28;19915;-12
2022/06/26 02:08:05;;;;;;;;;;;27.70;45.30;;;31.83;28.58;100942.84;5097203;28;20027;-13
2022/06/26 02:13:36;;;;;;;;;;;27.70;45.40;;;31.81;28.73;100943.00;5096845;28;19916;-12
2022/06/26 02:16:19;;;;;;;;;;;27.70;45.40;;;31.87;28.84;100963.09;5094729;28;19924;-12
2022/06/26 02:18:48;;;;;;;;;;;27.60;45.40;;;31.85;28.92;100951.63;5096160;28;19964;-12
2022/06/26 02:21:19;;;;;;;;;;;27.60;45.30;;;31.85;28.69;100951.63;5113413;28;19923;-12
2022/06/26 02:23:47;;;;;;;;;;;27.60;45.40;;;31.85;28.95;100960.56;5113967;28;20335;-12
2022/06/26 02:26:13;;;;;;;;;;;27.60;45.40;;;31.79;28.67;100944.16;5096785;28;19923;-13
2022/06/26 02:28:40;;;;;;;;;;;27.60;45.40;;;31.81;28.69;100947.53;5095183;28;19917;-12
2022/06/26 02:31:06;;;;;;;;;;;27.60;45.50;;;31.83;28.56;100950.94;5114527;28;19922;-12
2022/06/26 02:33:32;;;;;;;;;;;27.60;45.40;;;31.77;28.75;100947.03;5112775;28;19932;-12
2022/06/26 02:36:05;;;;;;;;;;;27.60;45.50;;;31.82;29.03;100958.19;5112044;28;19962;-12
2022/06/26 02:38:32;;;;;;;;;;;27.60;45.50;;;31.78;28.82;100951.44;5114285;28;19923;-12
2022/06/26 02:40:59;;;;;;;;;;;27.60;45.50;;;31.80;28.70;100973.75;5097169;28;19916;-12
2022/06/26 02:43:26;;;;;;;;;;;27.60;45.50;;;31.78;28.66;100970.34;5094541;28;19938;-12
2022/06/26 02:45:52;;;;;;;;;;;27.60;45.50;;;31.80;28.51;100967.50;5114269;28;19931;-12
2022/06/26 02:48:19;;;;;;;;;;;27.60;45.40;;;31.80;28.92;100962.09;5114046;28;19947;-12
2022/06/26 02:50:47;;;;;;;;;;;27.60;45.40;;;31.82;29.03;100962.75;5096868;28;19939;-12
2022/06/26 02:53:13;;;;;;;;;;;27.60;45.40;;;31.83;28.99;100969.88;5113261;28;20279;-12
2022/06/26 02:55:39;;;;;;;;;;;27.60;45.50;;;31.78;28.99;100956.84;5095989;28;19919;-12
2022/06/26 02:58:05;;;;;;;;;;;27.60;45.50;;;31.78;28.91;100956.84;5111758;28;19946;-12
2022/06/26 03:00:35;;;;;;;;;;;27.60;45.50;;;31.78;28.75;100959.53;5113108;28;20249;-12
2022/06/26 03:03:02;;;;;;;;;;;27.60;45.50;;;31.76;28.77;100962.41;5113387;28;19964;-12
2022/06/26 03:05:29;;;;;;;;;;;27.50;45.50;;;31.76;28.76;100966.97;5114046;28;19922;-12
2022/06/26 03:07:56;;;;;;;;;;;27.50;45.50;;;31.75;28.96;100959.88;5114089;28;20007;-12
2022/06/26 03:10:23;;;;;;;;;;;27.60;45.60;;;31.76;28.81;100967.81;5112781;28;19916;-12
2022/06/26 03:12:49;;;;;;;;;;;27.60;45.60;;;31.73;28.82;100956.50;5112585;28;20006;-13
2022/06/26 03:15:16;;;;;;;;;;;27.60;45.60;;;31.72;28.86;100968.31;5113954;28;20302;-12
2022/06/26 03:17:42;;;;;;;;;;;27.60;45.60;;;31.76;28.84;100967.81;5095588;28;19966;-12
2022/06/26 03:20:10;;;;;;;;;;;27.50;45.50;;;31.77;28.97;100974.06;5093593;28;19924;-12
2022/06/26 03:22:36;;;;;;;;;;;27.50;45.50;;;31.73;28.95;100972.72;5095613;28;19922;-12
2022/06/26 03:25:04;;;;;;;;;;;27.50;45.50;;;31.72;29.09;100961.03;5095565;28;19915;-12
2022/06/26 03:27:30;;;;;;;;;;;27.50;45.50;;;31.73;29.11;100961.91;5112347;28;19919;-12
2022/06/26 03:29:56;;;;;;;;;;;27.60;45.60;;;31.73;29.09;100961.91;5111697;28;19922;-12
2022/06/26 03:32:22;;;;;;;;;;;27.60;45.60;;;31.77;28.82;100963.25;5112466;28;20371;-12
2022/06/26 03:35:00;;;;;;;;;;;27.60;45.60;;;31.72;29.09;100961.03;5095398;28;19929;-12
2022/06/26 03:37:26;;;;;;;;;;;27.60;45.60;;;31.76;29.00;100970.53;5112685;28;19961;-12
2022/06/26 03:39:52;;;;;;;;;;;27.60;45.50;;;31.76;28.84;100966.97;5095211;28;19919;-13
2022/06/26 03:42:19;;;;;;;;;;;27.60;45.60;;;31.72;28.92;100969.13;5095990;28;19915;-12
2022/06/26 03:44:44;;;;;;;;;;;27.60;45.60;;;31.73;28.85;100970.00;5077837;28;19930;-12
2022/06/26 03:47:10;;;;;;;;;;;27.60;45.50;;;31.74;29.01;100969.84;5114040;28;19920;-12
2022/06/26 03:49:36;;;;;;;;;;;27.60;45.50;;;31.79;29.11;100976.59;5113593;28;20446;-13
2022/06/26 03:52:03;;;;;;;;;;;27.60;45.50;;;31.80;28.76;100970.19;5113964;28;19923;-12
2022/06/26 03:54:30;;;;;;;;;;;27.60;45.40;;;31.75;28.77;100962.56;5112096;28;19916;-12
2022/06/26 03:56:57;;;;;;;;;;;27.60;45.40;;;31.74;29.02;100967.13;5110590;28;20002;-12
2022/06/26 03:59:26;;;;;;;;;;;27.60;45.40;;;31.83;28.95;100980.69;5093782;28;19924;-12
2022/06/26 04:01:52;;;;;;;;;;;27.70;45.40;;;31.84;29.09;100982.34;5095396;28;19916;-12
2022/06/26 04:04:18;;;;;;;;;;;27.70;45.40;;;31.84;28.81;100983.19;5111953;28;19919;-13
2022/06/26 04:06:45;;;;;;;;;;;27.70;45.40;;;31.85;28.88;100979.50;5094675;28;19962;-13
2022/06/26 04:09:21;;;;;;;;;;;27.70;45.30;;;31.80;29.01;100968.31;5111890;28;19916;-12
2022/06/26 04:11:46;;;;;;;;;;;27.70;45.30;;;31.87;28.77;100979.34;5111920;28;20002;-12
2022/06/26 04:14:14;;;;;;;;;;;27.80;45.30;;;31.90;28.60;100977.13;5094929;28;19916;-12
2022/06/26 04:16:40;;;;;;;;;;;27.80;45.20;;;31.88;28.73;100976.47;5112960;28;19941;-13
2022/06/26 04:19:06;;;;;;;;;;;27.80;45.10;;;31.95;28.56;100971.25;5098656;28;19924;-12
2022/06/26 04:21:32;;;;;;;;;;;27.90;45.10;;;31.92;28.90;100971.56;5096113;28;20399;-12
2022/06/26 04:23:58;;;;;;;;;;;27.90;45.10;;;32.00;28.73;100974.28;5112354;28;19947;-12
2022/06/26 04:26:23;;;;;;;;;;;27.90;45.00;;;32.02;28.63;100969.56;5095319;28;20264;-12
2022/06/26 04:28:49;;;;;;;;;;;27.90;45.00;;;32.04;28.63;100975.63;5094064;28;19916;-12
2022/06/26 04:31:16;;;;;;;;;;;28.00;45.00;;;32.04;28.49;100970.22;5111922;28;19960;-12
2022/06/26 04:33:43;;;;;;;;;;;28.00;45.00;;;32.08;28.56;100973.50;5112305;28;19916;-12
2022/06/26 04:36:09;;;;;;;;;;;28.00;45.00;;;32.02;28.35;100957.91;5111012;28;19968;-13
2022/06/26 04:38:36;;;;;;;;;;;28.00;45.00;;;32.09;28.52;100972.47;5110282;28;20318;-13
2022/06/26 04:41:31;;;;;;;;;;;28.00;44.90;;;32.06;28.62;100961.94;5113820;28;19915;-12
2022/06/26 04:43:49;;;;;;;;;;;28.00;44.90;;;32.16;28.79;100967.25;5116380;28;20002;-12
2022/06/26 04:46:16;;;;;;;;;;;28.10;44.80;;;32.15;28.49;100966.41;5115003;28;19942;-12
2022/06/26 04:48:44;;;;;;;;;;;28.10;44.70;;;32.17;28.82;100971.66;5115274;28;19916;-12
2022/06/26 04:51:11;;;;;;;;;;;28.20;44.70;;;32.20;28.73;100971.31;5097479;28;20329;-12
2022/06/26 04:53:38;;;;;;;;;;;28.20;44.60;;;32.27;28.21;100980.47;5097313;28;19922;-12
2022/06/26 04:56:05;;;;;;;;;;;28.20;44.60;;;32.30;28.47;100985.53;5113124;28;19915;-12
2022/06/26 04:58:38;;;;;;;;;;;28.30;44.50;;;32.32;28.31;100986.22;5079452;28;19930;-12
2022/06/26 05:01:04;;;;;;;;;;;28.40;44.50;;;32.41;28.34;101000.59;5097430;28;19916;-12
2022/06/26 05:03:49;;;;;;;;;;;28.40;44.30;;;32.42;28.15;100986.88;5114687;28;19916;-12
2022/06/26 05:06:36;;;;;;;;;;;28.50;44.20;;;32.48;28.00;100993.50;5097699;28;19959;-12
2022/06/26 05:09:13;;;;;;;;;;;28.50;44.10;;;32.50;28.30;100992.31;5097677;28;19915;-12
2022/06/26 05:11:40;;;;;;;;;;;28.60;44.10;;;32.54;28.42;100991.97;5097653;28;19919;-12
2022/06/26 05:14:06;;;;;;;;;;;28.60;44.00;;;32.61;27.95;100993.88;5114634;28;19972;-12
2022/06/26 05:16:55;;;;;;;;;;;28.70;44.00;;;32.62;27.95;100995.56;5115974;28;19937;-12
2022/06/26 05:19:27;;;;;;;;;;;28.70;43.90;;;32.70;28.06;101002.00;5112651;28;19915;-13
2022/06/26 05:21:53;;;;;;;;;;;28.80;43.90;;;32.70;28.26;100989.31;5114487;28;20314;-12
2022/06/26 05:24:20;;;;;;;;;;;28.80;43.80;;;32.73;28.20;100991.66;5113729;28;19924;-12
2022/06/26 05:26:47;;;;;;;;;;;28.80;43.70;;;32.83;27.88;100999.63;5114349;28;19930;-12
2022/06/26 05:29:13;;;;;;;;;;;28.90;43.70;;;32.83;27.73;100996.91;5114351;28;19960;-12
2022/06/26 05:31:38;;;;;;;;;;;28.90;43.60;;;32.84;27.87;100983.19;5116211;28;19958;-12
2022/06/26 05:34:04;;;;;;;;;;;29.00;43.60;;;32.89;27.63;100992.66;5097476;28;19922;-12
2022/06/26 05:36:31;;;;;;;;;;;29.00;43.50;;;32.89;27.93;100982.66;5098677;28;19923;-12
2022/06/26 05:38:58;;;;;;;;;;;29.00;43.40;;;32.99;27.97;100996.03;5114605;28;19920;-12
2022/06/26 05:41:27;;;;;;;;;;;29.10;43.40;;;33.05;27.48;100995.34;5112414;28;19923;-12
2022/06/26 05:43:53;;;;;;;;;;;29.10;43.40;;;33.03;27.77;100992.81;5096645;28;19923;-12
2022/06/26 05:46:18;;;;;;;;;;;29.20;43.30;;;33.08;27.88;100988.72;5097709;28;19922;-12
2022/06/26 05:48:53;;;;;;;;;;;29.20;43.30;;;33.11;27.84;100999.22;5115870;28;20301;-12
2022/06/26 05:51:33;;;;;;;;;;;29.20;43.20;;;33.19;27.38;101002.78;5097417;28;19964;-12
2022/06/26 05:54:16;;;;;;;;;;;29.30;43.10;;;33.25;27.73;101006.69;5113938;28;19923;-12
2022/06/26 05:56:59;;;;;;;;;;;29.40;43.10;;;33.29;27.32;101002.59;5114104;28;19916;-12
2022/06/26 05:59:34;;;;;;;;;;;29.40;42.90;;;33.34;27.77;100999.38;5115194;28;19916;-13
2022/06/26 06:02:10;;;;;;;;;;;29.50;43.00;;;33.39;27.34;100996.97;5097177;28;19993;-12
2022/06/26 06:04:36;;;;;;;;;;;29.60;42.90;;;33.40;27.30;100991.38;5115145;28;20385;-12
2022/06/26 06:07:04;;;;;;;;;;;29.60;42.80;;;33.49;27.44;101000.31;5113677;28;19965;-12
2022/06/26 06:09:30;;;;;;;;;;;29.60;42.70;;;33.47;27.44;100990.69;5115072;28;20035;-12
2022/06/26 06:11:56;;;;;;;;;;;29.60;42.80;;;33.51;27.37;100992.03;5096648;28;19923;-12
2022/06/26 06:14:21;;;;;;;;;;;29.60;42.90;;;33.46;27.39;100991.69;5097248;28;19999;-12
2022/06/26 06:16:47;;;;;;;;;;;29.50;42.90;;;33.47;27.21;100993.41;5113458;28;20036;-12
2022/06/26 06:19:13;;;;;;;;;;;29.40;42.90;;;33.48;27.12;101003.22;5113548;28;19931;-12
2022/06/26 06:21:43;;;;;;;;;;;29.40;43.00;;;33.45;27.45;101004.41;5113358;28;19916;-12
2022/06/26 06:24:10;;;;;;;;;;;29.40;43.10;;;33.39;26.93;101002.41;5114007;28;19915;-12
2022/06/26 06:26:37;;;;;;;;;;;29.30;43.20;;;33.42;27.18;101008.31;5113512;28;19939;-12
2022/06/26 06:29:11;;;;;;;;;;;29.30;43.20;;;33.42;27.42;101015.59;5113454;28;20321;-12
2022/06/26 06:31:37;;;;;;;;;;;29.30;43.30;;;33.42;27.16;101016.44;5113225;28;19915;-12
2022/06/26 06:34:04;;;;;;;;;;;29.30;43.20;;;33.37;27.37;101004.44;5113385;28;19923;-12
2022/06/26 06:36:30;;;;;;;;;;;29.30;43.30;;;33.36;27.15;101022.59;5113816;28;19916;-12
2022/06/26 06:38:58;;;;;;;;;;;29.20;43.30;;;33.39;27.49;101014.06;5113434;28;19916;-12
2022/06/26 06:41:24;;;;;;;;;;;29.20;43.30;;;33.40;27.31;101015.78;5113239;28;20428;-12
2022/06/26 06:44:03;;;;;;;;;;;29.30;43.30;;;33.37;27.13;101016.13;5113738;28;19923;-12
2022/06/26 06:46:28;;;;;;;;;;;29.30;43.20;;;33.39;27.10;101015.94;5114684;28;19919;-13
2022/06/26 06:49:00;;;;;;;;;;;29.40;43.20;;;33.46;27.01;101024.22;5095927;28;19916;-12
2022/06/26 06:51:29;;;;;;;;;;;29.40;43.10;;;33.46;27.21;101019.66;5112965;28;19915;-12
2022/06/26 06:53:55;;;;;;;;;;;29.50;43.00;;;33.50;26.94;101017.47;5096033;28;19922;-12
2022/06/26 06:56:22;;;;;;;;;;;29.50;42.90;;;33.53;27.26;101026.06;5113041;28;19941;-12
2022/06/26 06:58:48;;;;;;;;;;;29.60;42.90;;;33.57;27.10;101030.13;5112834;28;19920;-12
2022/06/26 07:01:14;;;;;;;;;;;29.60;42.80;;;33.65;27.27;101045.53;5095919;28;19923;-12
2022/06/26 07:03:40;;;;;;;;;;;29.70;42.80;;;33.64;27.16;101037.56;5094517;28;20010;-12
2022/06/26 07:06:05;;;;;;;;;;;29.70;42.70;;;33.67;27.30;101034.50;5096975;28;19922;-12
2022/06/26 07:08:33;;;;;;;;;;;29.70;42.60;;;33.72;26.73;101045.69;5095030;28;19920;-12
2022/06/26 07:10:58;;;;;;;;;;;29.80;42.70;;;33.81;26.72;101046.50;5096339;28;20269;-12
2022/06/26 07:13:24;;;;;;;;;;;29.80;42.60;;;33.79;27.08;101035.81;5114321;28;19964;-12
2022/06/26 07:15:51;;;;;;;;;;;29.90;42.60;;;33.87;26.63;101051.22;5112634;28;19973;-12
2022/06/26 07:18:17;;;;;;;;;;;29.80;42.50;;;33.85;26.70;101045.09;5112525;28;19920;-12
2022/06/26 07:20:43;;;;;;;;;;;29.90;42.50;;;33.89;26.69;101041.03;5094368;28;19916;-12
2022/06/26 07:23:09;;;;;;;;;;;29.90;42.70;;;33.91;26.64;101044.41;5113890;28;20363;-12
2022/06/26 07:25:47;;;;;;;;;;;29.90;42.50;;;33.89;26.70;101044.59;5112658;28;19915;-12
2022/06/26 07:28:13;;;;;;;;;;;29.90;42.40;;;33.92;26.93;101040.69;5094171;28;19923;-12
2022/06/26 07:30:39;;;;;;;;;;;29.90;42.40;;;33.94;26.67;101044.91;5112982;28;20017;-12
2022/06/26 07:35:55;;;;;;;;;;;29.90;42.40;;;33.96;26.84;101050.16;5095400;28;19916;-12
2022/06/26 07:38:21;;;;;;;;;;;30.00;42.40;;;33.97;26.57;101049.13;5094077;28;19915;-12
2022/06/26 07:40:47;;;;;;;;;;;30.00;42.50;;;33.99;26.73;101046.25;5093579;28;20363;-12
2022/06/26 07:43:13;;;;;;;;;;;29.90;42.30;;;34.03;26.45;101048.44;5095293;28;19946;-12
2022/06/26 07:45:38;;;;;;;;;;;30.00;42.40;;;34.04;26.70;101057.41;5095300;28;19916;-12
2022/06/26 07:48:07;;;;;;;;;;;30.00;42.40;;;34.07;26.59;101054.34;5110724;28;20014;-12
2022/06/26 07:50:37;;;;;;;;;;;30.00;42.30;;;34.05;26.67;101054.53;5110890;28;20006;-12
2022/06/26 07:53:02;;;;;;;;;;;30.00;42.30;;;34.12;26.39;101066.34;5113485;28;20019;-12
2022/06/26 07:55:28;;;;;;;;;;;30.00;42.40;;;34.10;26.56;101062.13;5113480;28;19916;-12
2022/06/26 07:57:54;;;;;;;;;;;30.00;42.30;;;34.09;26.40;101055.84;5113290;28;19941;-12
2022/06/26 08:00:20;;;;;;;;;;;30.00;42.30;;;34.14;26.47;101063.47;5113699;28;19931;-12
2022/06/26 08:02:46;;;;;;;;;;;30.00;42.40;;;34.13;26.50;101065.34;5113369;28;20367;-12
2022/06/26 08:05:12;;;;;;;;;;;30.00;42.40;;;34.13;26.29;101068.06;5113407;28;19916;-12
2022/06/26 08:07:38;;;;;;;;;;;30.00;42.40;;;34.11;26.35;101071.94;5113176;28;19916;-12
2022/06/26 08:10:04;;;;;;;;;;;30.00;42.40;;;34.15;26.45;101079.56;5110034;28;19923;-12
2022/06/26 08:12:30;;;;;;;;;;;30.00;42.40;;;34.16;26.54;101074.97;5113359;28;19954;-12
2022/06/26 08:14:56;;;;;;;;;;;30.00;42.40;;;34.17;26.61;101083.97;5113824;28;19940;-12
2022/06/26 08:17:22;;;;;;;;;;;30.00;42.40;;;34.12;26.48;101074.50;5116473;28;19920;-12
2022/06/26 08:19:48;;;;;;;;;;;30.00;42.40;;;34.11;26.38;101072.78;5117199;28;20418;-12
2022/06/26 08:22:14;;;;;;;;;;;30.00;42.40;;;34.11;26.50;101067.34;5117083;28;19922;-12
2022/06/26 08:24:41;;;;;;;;;;;30.00;42.40;;;34.12;26.37;101077.19;5116805;28;20113;-12
2022/06/26 08:27:08;;;;;;;;;;;30.00;42.40;;;34.15;26.36;101090.41;5098915;28;19968;-12
2022/06/26 08:29:34;;;;;;;;;;;30.00;42.50;;;34.09;26.41;101077.56;5116595;28;19922;-12
2022/06/26 08:32:00;;;;;;;;;;;29.90;42.40;;;34.11;26.52;101085.53;5117192;28;19946;-12
2022/06/26 08:34:26;;;;;;;;;;;29.90;42.50;;;34.09;26.65;101093.84;5116651;28;19919;-12
2022/06/26 08:36:53;;;;;;;;;;;29.80;42.60;;;34.06;26.22;101098.78;5116382;28;19915;-12
2022/06/26 08:39:20;;;;;;;;;;;29.80;42.80;;;33.97;26.33;101092.53;5116722;28;20424;-12
2022/06/26 08:41:45;;;;;;;;;;;29.70;42.80;;;33.97;26.22;101090.66;5116446;28;19916;-12
2022/06/26 08:44:11;;;;;;;;;;;29.60;42.90;;;33.95;26.29;101098.16;5116284;28;20010;-12
2022/06/26 08:46:42;;;;;;;;;;;29.60;42.80;;;33.88;26.52;101090.88;5116140;28;19920;-12
2022/06/26 08:49:11;;;;;;;;;;;29.60;42.80;;;33.89;26.44;101101.56;5116974;28;20348;-12
2022/06/26 08:51:39;;;;;;;;;;;29.70;42.90;;;33.87;26.70;101098.16;5116917;28;19937;-12
2022/06/26 08:54:06;;;;;;;;;;;29.60;42.90;;;33.89;26.61;101100.72;5116230;28;19939;-12
2022/06/26 08:56:33;;;;;;;;;;;29.60;42.90;;;33.85;26.42;101102.06;5116081;28;19941;-12
2022/06/26 08:58:59;;;;;;;;;;;29.60;43.00;;;33.82;26.77;101100.56;5116213;28;19931;-12
2022/06/26 09:01:24;;;;;;;;;;;29.50;43.00;;;33.81;26.51;101103.44;5116101;28;19915;-12
2022/06/26 09:03:50;;;;;;;;;;;29.50;43.10;;;33.78;26.89;101099.22;5116426;28;19919;-12
2022/06/26 09:06:17;;;;;;;;;;;29.50;43.10;;;33.72;26.99;101092.63;5116151;28;20006;-12
2022/06/26 09:08:44;;;;;;;;;;;29.50;43.20;;;33.69;26.77;101098.41;5116002;28;19923;-12
2022/06/26 09:11:10;;;;;;;;;;;29.40;43.20;;;33.70;26.61;101110.94;5115883;28;19947;-12
2022/06/26 09:13:40;;;;;;;;;;;29.40;43.20;;;33.66;26.89;101093.28;5116054;28;19963;-12
2022/06/26 09:16:06;;;;;;;;;;;29.40;43.30;;;33.69;27.03;101106.53;5116137;28;20015;-12
2022/06/26 09:18:35;;;;;;;;;;;29.40;43.30;;;33.65;26.67;101101.59;5115714;28;19915;-12
2022/06/26 09:21:01;;;;;;;;;;;29.40;43.30;;;33.61;27.08;101090.25;5115710;28;19916;-12
2022/06/26 09:23:27;;;;;;;;;;;29.40;43.40;;;33.64;26.66;101103.47;5115677;28;19916;-12
2022/06/26 09:25:52;;;;;;;;;;;29.40;43.40;;;33.61;26.85;101101.09;5115664;28;19923;-12
2022/06/26 09:28:21;;;;;;;;;;;29.40;43.40;;;33.66;27.06;101123.13;5114704;28;20349;-12
2022/06/26 09:31:02;;;;;;;;;;;29.30;43.30;;;33.62;26.83;101116.34;5115968;28;20424;-12
2022/06/26 09:33:33;;;;;;;;;;;29.30;43.40;;;33.58;26.73;101113.16;5096962;28;19980;-12
2022/06/26 09:36:00;;;;;;;;;;;29.30;43.40;;;33.60;27.15;101118.41;5115816;28;20385;-12
2022/06/26 09:38:31;;;;;;;;;;;29.30;43.40;;;33.56;26.98;101117.03;5115940;28;19916;-13
2022/06/26 09:41:03;;;;;;;;;;;29.30;43.50;;;33.59;26.96;101132.97;5115404;28;19916;-12
2022/06/26 09:43:41;;;;;;;;;;;29.30;43.50;;;33.58;27.25;101133.97;5115715;28;19916;-12
2022/06/26 09:46:11;;;;;;;;;;;29.30;43.50;;;33.58;26.96;101129.41;5115435;28;20332;-12
2022/06/26 09:48:37;;;;;;;;;;;29.30;43.50;;;33.52;26.75;101116.56;5115404;28;19924;-12
2022/06/26 09:51:05;;;;;;;;;;;29.30;43.40;;;33.54;26.88;101124.50;5115266;28;20318;-12
2022/06/26 09:53:31;;;;;;;;;;;29.30;43.40;;;33.54;27.06;101130.78;5096027;28;19916;-12
2022/06/26 09:55:58;;;;;;;;;;;29.30;43.40;;;33.59;26.87;101133.81;5115490;28;19920;-12
2022/06/26 09:58:25;;;;;;;;;;;29.30;43.40;;;33.56;27.27;101130.59;5115157;28;19928;-12
2022/06/26 10:06:26;;;;;;;;;;;29.30;43.50;;;33.53;27.04;101137.22;5115259;28;19922;-12
2022/06/26 10:09:05;;;;;;;;;;;29.20;43.40;;;33.53;26.86;101139.06;5115093;28;19961;-12
2022/06/26 10:11:32;;;;;;;;;;;29.30;43.60;;;33.55;26.75;101145.19;5115377;28;20386;-12
2022/06/26 10:14:18;;;;;;;;;;;29.20;43.60;;;33.50;27.05;101150.28;5115051;28;19916;-12
2022/06/26 10:16:53;;;;;;;;;;;29.20;43.60;;;33.51;26.95;101150.09;5095582;28;20360;-12
2022/06/26 10:19:43;;;;;;;;;;;29.20;43.70;;;33.50;27.11;101161.13;5114828;28;20417;-12
2022/06/26 10:22:10;;;;;;;;;;;29.20;43.70;;;33.42;27.12;101151.97;5115027;28;19953;-12
2022/06/26 10:24:35;;;;;;;;;;;29.20;43.70;;;33.42;26.97;101157.38;5114879;28;20376;-12
2022/06/26 10:27:03;;;;;;;;;;;29.20;43.70;;;33.47;26.86;101164.19;5114829;28;19922;-12
2022/06/26 10:29:37;;;;;;;;;;;29.20;43.70;;;33.47;27.03;101170.44;5114783;28;19915;-12
2022/06/26 10:32:03;;;;;;;;;;;29.20;43.70;;;33.45;26.86;101174.31;5115135;28;19915;-12
2022/06/26 10:34:28;;;;;;;;;;;29.20;43.60;;;33.45;27.25;101168.91;5114649;28;20006;-12
2022/06/26 10:36:58;;;;;;;;;;;29.20;43.60;;;33.49;27.41;101181.13;5114704;28;19949;-12
2022/06/26 10:39:36;;;;;;;;;;;29.20;43.70;;;33.48;27.11;101182.97;5114226;28;19930;-12
2022/06/26 10:44:55;;;;;;;;;;;29.20;43.70;;;33.42;27.34;101179.06;5115066;28;20065;-12
2022/06/26 10:47:21;;;;;;;;;;;29.20;43.70;;;33.42;27.32;101176.38;5096073;28;19922;-13
2022/06/26 10:49:51;;;;;;;;;;;29.10;43.70;;;33.40;27.24;101172.97;5114406;28;20002;-12
2022/06/26 10:52:31;;;;;;;;;;;29.10;43.70;;;33.42;27.35;101184.50;5114930;28;19915;-12
2022/06/26 10:55:02;;;;;;;;;;;29.10;43.70;;;33.43;26.94;101185.38;5114786;28;20415;-12
2022/06/26 10:57:36;;;;;;;;;;;29.10;43.70;;;33.38;26.92;101177.72;5114557;28;19970;-12
2022/06/26 11:00:07;;;;;;;;;;;29.10;43.80;;;33.36;26.96;101174.34;5111680;28;19916;-12
2022/06/26 11:02:36;;;;;;;;;;;29.10;43.80;;;33.40;27.23;101181.13;5114279;28;20364;-12
2022/06/26 11:05:03;;;;;;;;;;;29.10;43.80;;;33.40;27.20;101178.41;5114211;28;20389;-12
2022/06/26 11:07:39;;;;;;;;;;;29.10;43.70;;;33.41;27.24;101180.09;5114142;28;20317;-13
2022/06/26 11:10:10;;;;;;;;;;;29.10;43.70;;;33.38;27.42;101177.72;5112314;28;19923;-12
2022/06/26 11:12:40;;;;;;;;;;;29.10;43.80;;;33.37;27.24;101180.63;5113955;28;19923;-12
2022/06/26 11:15:06;;;;;;;;;;;29.20;43.70;;;33.39;27.07;101175.88;5114036;28;19922;-12
2022/06/26 11:17:33;;;;;;;;;;;29.20;43.70;;;33.43;27.23;101182.66;5114479;28;20337;-12
2022/06/26 11:22:43;;;;;;;;;;;29.20;43.70;;;33.41;27.47;101180.09;5114550;28;19960;-12
2022/06/26 11:25:09;;;;;;;;;;;29.20;44.20;;;33.40;27.32;101180.28;5113880;28;19928;-12
2022/06/26 11:27:36;;;;;;;;;;;29.20;43.70;;;33.46;27.01;101193.13;5095268;28;20021;-12
2022/06/26 11:30:02;;;;;;;;;;;29.20;43.60;;;33.47;27.18;101189.41;5113977;28;20264;-12